Time;durP1;ratioP1;P1;durP2;ratioP2;P2;SDS_P1;SDS_P2;PMS_P1;PMS_P2;Temp;Humidity;BMP_temperature;BMP_pressure;BME280_temperature;BME280_humidity;BME280_pressure;Samples;Min_cycle;Max_cycle;Signal;HPM_P1;HPM_P2
2022/03/20 00:02:25;;;;;;;6.63;5.97;;;;;;;-0.77;43.64;96929.78;5098102;28;20503;-65
2022/03/20 00:04:53;;;;;;;6.72;6.22;;;;;;;-0.88;43.75;96927.09;5098582;28;20242;-65
2022/03/20 00:07:21;;;;;;;8.10;7.30;;;;;;;-0.91;43.92;96933.78;5098676;28;20189;-65
2022/03/20 00:09:51;;;;;;;9.60;8.60;;;;;;;-0.95;43.76;96934.50;5097794;28;20283;-65
2022/03/20 00:12:18;;;;;;;9.30;8.30;;;;;;;-1.00;43.87;96938.72;5097692;28;20199;-65
2022/03/20 00:14:45;;;;;;;9.32;8.38;;;;;;;-1.04;44.21;96945.69;5098379;28;20193;-65
2022/03/20 00:17:12;;;;;;;9.02;8.13;;;;;;;-1.06;44.04;96938.84;5098468;28;20198;-65
2022/03/20 00:19:39;;;;;;;9.27;8.30;;;;;;;-1.06;43.80;96946.97;5097813;28;20197;-65
2022/03/20 00:22:06;;;;;;;8.70;7.80;;;;;;;-0.94;44.24;96952.38;5097374;28;20561;-66
2022/03/20 00:24:35;;;;;;;8.80;7.88;;;;;;;-0.91;43.86;96950.03;5097067;28;20200;-66
2022/03/20 00:27:01;;;;;;;7.85;7.05;;;;;;;-0.99;43.80;96950.38;5097328;28;20601;-66
2022/03/20 00:29:29;;;;;;;9.15;8.20;;;;;;;-0.98;43.77;96949.34;5097500;28;20220;-65
2022/03/20 00:31:56;;;;;;;8.10;7.40;;;;;;;-0.99;43.76;96947.69;5097366;28;20192;-65
2022/03/20 00:34:22;;;;;;;8.88;7.75;;;;;;;-1.03;43.58;96950.03;5096814;28;20616;-65
2022/03/20 00:36:49;;;;;;;7.30;6.60;;;;;;;-1.07;43.76;96945.31;5097121;28;20196;-65
2022/03/20 00:39:16;;;;;;;8.52;7.55;;;;;;;-1.08;44.22;96946.38;5097369;28;20199;-65
2022/03/20 00:41:45;;;;;;;8.00;7.28;;;;;;;-1.06;44.22;96936.13;5097697;28;20185;-65
2022/03/20 00:44:11;;;;;;;8.20;7.50;;;;;;;-1.06;44.47;96946.97;5097951;28;20180;-66
2022/03/20 00:46:38;;;;;;;7.85;7.05;;;;;;;-1.06;44.24;96938.84;5096935;28;20541;-65
2022/03/20 00:49:06;;;;;;;8.35;7.55;;;;;;;-1.06;44.53;96936.94;5096427;28;20699;-65
2022/03/20 00:51:33;;;;;;;7.72;7.03;;;;;;;-1.05;44.48;96932.38;5096322;28;20232;-65
2022/03/20 00:54:00;;;;;;;7.32;6.72;;;;;;;-1.06;44.91;96941.53;5096463;28;20202;-65
2022/03/20 00:56:27;;;;;;;8.63;7.63;;;;;;;-1.12;45.12;96937.91;5096894;28;20201;-65
2022/03/20 00:58:55;;;;;;;7.82;7.13;;;;;;;-1.18;45.42;96941.53;5097244;28;20185;-65
2022/03/20 01:01:22;;;;;;;8.68;7.88;;;;;;;-1.19;45.78;96936.38;5097047;28;20224;-65
2022/03/20 01:03:49;;;;;;;8.60;7.85;;;;;;;-1.21;45.06;96933.88;5096607;28;20199;-65
2022/03/20 01:06:17;;;;;;;9.35;8.45;;;;;;;-1.26;45.76;96936.47;5097542;28;20181;-65
2022/03/20 01:08:44;;;;;;;10.98;9.55;;;;;;;-1.26;45.71;96931.88;5096493;28;20250;-65
2022/03/20 01:11:11;;;;;;;13.45;12.15;;;;;;;-1.26;45.63;96931.06;5097643;28;20195;-65
2022/03/20 01:13:38;;;;;;;13.00;11.70;;;;;;;-1.31;45.92;96928.19;5097354;28;20188;-65
2022/03/20 01:16:06;;;;;;;12.32;11.13;;;;;;;-1.36;46.06;96928.91;5097330;28;20194;-65
2022/03/20 01:18:33;;;;;;;14.60;13.10;;;;;;;-1.40;46.24;96932.31;5096405;28;20215;-64
2022/03/20 01:21:00;;;;;;;14.50;13.00;;;;;;;-1.42;46.42;96929.00;5096270;28;20575;-64
2022/03/20 01:23:27;;;;;;;13.98;12.70;;;;;;;-1.46;46.71;96926.75;5096240;28;20623;-65
2022/03/20 01:25:54;;;;;;;15.10;13.70;;;;;;;-1.51;46.91;96929.34;5096385;28;20196;-65
2022/03/20 01:28:23;;;;;;;13.40;12.20;;;;;;;-1.55;47.62;96932.75;5097077;28;20193;-65
2022/03/20 01:30:49;;;;;;;13.80;12.50;;;;;;;-1.61;47.40;96929.06;5096974;28;20208;-65
2022/03/20 01:33:18;;;;;;;14.10;12.80;;;;;;;-1.60;47.51;96925.28;5096533;28;20211;-65
2022/03/20 01:35:45;;;;;;;14.10;12.80;;;;;;;-1.66;47.35;96930.81;5096937;28;20223;-65
2022/03/20 01:38:17;;;;;;;14.40;12.95;;;;;;;-1.70;47.70;96927.75;5095933;28;20196;-65
2022/03/20 01:40:44;;;;;;;14.52;13.13;;;;;;;-1.73;47.52;96930.91;5096847;28;20188;-65
2022/03/20 01:43:11;;;;;;;13.45;12.25;;;;;;;-1.79;47.67;96937.22;5096826;28;20254;-65
2022/03/20 01:45:38;;;;;;;12.70;11.45;;;;;;;-1.76;47.81;96929.47;5096703;28;20605;-65
2022/03/20 01:48:05;;;;;;;13.10;11.80;;;;;;;-1.77;47.48;96927.03;5095937;28;20197;-65
2022/03/20 01:50:33;;;;;;;12.63;11.52;;;;;;;-1.77;47.59;96927.84;5095826;28;20220;-65
2022/03/20 01:53:00;;;;;;;13.32;12.10;;;;;;;-1.80;47.75;96939.13;5096596;28;20185;-65
2022/03/20 01:55:28;;;;;;;14.25;12.95;;;;;;;-1.85;47.87;96943.56;5096687;28;20518;-65
2022/03/20 01:57:56;;;;;;;14.43;13.23;;;;;;;-1.88;48.18;96939.44;5095392;28;20196;-65
2022/03/20 02:00:25;;;;;;;14.27;12.93;;;;;;;-1.88;48.44;96946.72;5094829;28;20287;-65
2022/03/20 02:02:52;;;;;;;15.32;14.02;;;;;;;-1.84;48.23;96953.34;5095133;28;20195;-65
2022/03/20 02:05:19;;;;;;;15.20;13.70;;;;;;;-1.84;47.86;96947.94;5095404;28;20204;-65
2022/03/20 02:07:47;;;;;;;14.27;12.98;;;;;;;-1.95;49.58;96942.22;5094856;28;20215;-65
2022/03/20 02:10:15;;;;;;;14.43;13.18;;;;;;;-2.10;50.23;96947.22;5094761;28;20647;-65
2022/03/20 02:12:42;;;;;;;15.27;13.80;;;;;;;-2.15;50.82;96940.81;5095623;28;20181;-65
2022/03/20 02:15:10;;;;;;;14.77;13.38;;;;;;;-2.15;50.77;96946.22;5094991;28;20208;-65
2022/03/20 02:17:38;;;;;;;15.73;13.98;;;;;;;-2.13;50.81;96946.84;5094858;28;20205;-65
2022/03/20 02:20:08;;;;;;;15.18;13.68;;;;;;;-2.22;51.95;96940.91;5094886;28;20640;-65
2022/03/20 02:22:38;;;;;;;16.42;14.93;;;;;;;-2.32;51.50;96936.03;5094806;28;20291;-65
2022/03/20 02:25:06;;;;;;;15.50;14.07;;;;;;;-2.38;52.34;96941.50;5095786;28;20212;-65
2022/03/20 02:27:34;;;;;;;16.98;15.45;;;;;;;-2.38;52.40;96934.22;5095059;28;20199;-65
2022/03/20 02:30:01;;;;;;;18.75;17.05;;;;;;;-2.42;52.53;96938.44;5095960;28;20295;-65
2022/03/20 02:32:29;;;;;;;16.05;14.43;;;;;;;-2.42;52.41;96933.03;5095966;28;20180;-65
2022/03/20 02:34:57;;;;;;;16.48;14.98;;;;;;;-2.44;52.81;96938.66;5095801;28;20208;-65
2022/03/20 02:37:25;;;;;;;16.05;14.55;;;;;;;-2.51;52.56;96945.19;5095827;28;20199;-65
2022/03/20 02:39:56;;;;;;;14.32;13.13;;;;;;;-2.52;52.36;96949.75;5095770;28;20195;-65
2022/03/20 02:42:23;;;;;;;14.65;13.30;;;;;;;-2.54;52.65;96951.03;5094873;28;20200;-65
2022/03/20 02:44:53;;;;;;;14.82;13.43;;;;;;;-2.53;52.32;96937.31;5095692;28;20193;-65
2022/03/20 02:47:23;;;;;;;15.45;14.05;;;;;;;-2.58;52.92;96936.31;5094407;28;20253;-65
2022/03/20 02:49:51;;;;;;;15.25;13.85;;;;;;;-2.57;52.99;96933.41;5096520;28;20227;-64
2022/03/20 02:52:18;;;;;;;14.80;13.38;;;;;;;-2.51;53.00;96932.50;5115356;28;20646;-64
2022/03/20 02:54:45;;;;;;;15.75;14.23;;;;;;;-2.54;52.92;96934.81;5115764;28;20215;-64
2022/03/20 02:57:14;;;;;;;13.95;12.52;;;;;;;-2.50;52.06;96942.25;5098369;28;20583;-64
2022/03/20 02:59:40;;;;;;;12.95;11.75;;;;;;;-2.55;51.43;96933.16;5098224;28;20278;-65
2022/03/20 03:02:09;;;;;;;13.30;12.10;;;;;;;-2.58;51.98;96936.31;5116025;28;20179;-65
2022/03/20 03:04:37;;;;;;;13.20;11.98;;;;;;;-2.62;51.33;96938.63;5115749;28;20194;-65
2022/03/20 03:07:05;;;;;;;12.55;11.45;;;;;;;-2.57;51.21;96929.88;5097593;28;20196;-65
2022/03/20 03:12:17;;;;;;;12.63;11.50;;;;;;;-2.50;50.90;96930.63;5115290;28;20172;-65
2022/03/20 03:17:30;;;;;;;13.35;12.05;;;;;;;-2.56;50.44;96935.06;5115137;28;20176;-66
2022/03/20 03:19:58;;;;;;;12.82;11.75;;;;;;;-2.56;50.67;96931.53;5097758;28;20195;-66
2022/03/20 03:22:26;;;;;;;13.05;11.95;;;;;;;-2.54;50.67;96938.38;5115320;28;20203;-66
2022/03/20 03:24:53;;;;;;;13.35;12.05;;;;;;;-2.47;50.58;96940.97;5115330;28;20206;-66
2022/03/20 03:27:21;;;;;;;12.45;11.45;;;;;;;-2.49;50.45;96935.81;5097603;28;20199;-66
2022/03/20 03:29:48;;;;;;;12.43;11.40;;;;;;;-2.58;50.33;96939.00;5115252;28;20220;-66
2022/03/20 03:32:15;;;;;;;12.20;11.10;;;;;;;-2.59;50.95;96937.38;5115333;28;20184;-66
2022/03/20 03:37:27;;;;;;;13.88;12.63;;;;;;;-2.58;52.14;96939.84;5097495;28;20192;-66
2022/03/20 03:39:54;;;;;;;12.70;11.63;;;;;;;-2.62;51.91;96945.91;5115170;28;20183;-67
2022/03/20 03:42:22;;;;;;;12.77;11.50;;;;;;;-2.62;50.75;96943.22;5097424;28;20237;-66
2022/03/20 03:44:50;;;;;;;12.07;10.93;;;;;;;-2.66;50.75;96948.25;5115109;28;20237;-67
2022/03/20 03:47:17;;;;;;;11.27;10.32;;;;;;;-2.66;50.85;96949.06;5115271;28;20190;-67
2022/03/20 03:49:44;;;;;;;14.57;11.38;;;;;;;-2.78;52.19;96963.53;5097396;28;20226;-66
2022/03/20 03:52:11;;;;;;;12.52;11.25;;;;;;;-2.94;52.46;96949.56;5115217;28;20237;-67
2022/03/20 03:54:38;;;;;;;12.27;11.18;;;;;;;-2.95;52.77;96952.47;5114900;28;20611;-66
2022/03/20 03:57:06;;;;;;;13.73;12.52;;;;;;;-3.00;53.51;96949.63;5114850;28;20192;-67
2022/03/20 03:59:34;;;;;;;11.45;10.45;;;;;;;-3.08;53.33;96944.50;5115114;28;20188;-66
2022/03/20 04:02:01;;;;;;;12.68;11.57;;;;;;;-3.10;53.75;96950.09;5097245;28;20624;-66
2022/03/20 04:04:28;;;;;;;12.80;11.70;;;;;;;-3.12;53.41;96956.75;5115292;28;20219;-66
2022/03/20 04:06:56;;;;;;;13.23;11.93;;;;;;;-3.13;54.77;96945.13;5096845;28;20195;-66
2022/03/20 04:09:23;;;;;;;12.88;11.85;;;;;;;-3.08;54.44;96944.50;5115125;28;20202;-66
2022/03/20 04:11:51;;;;;;;12.82;11.73;;;;;;;-3.15;54.08;96944.56;5114993;28;20208;-66
2022/03/20 04:14:17;;;;;;;13.40;12.10;;;;;;;-3.23;54.50;96937.56;5097116;28;20195;-65
2022/03/20 04:16:46;;;;;;;13.15;12.05;;;;;;;-3.14;54.29;96943.50;5097218;28;20196;-65
2022/03/20 04:19:12;;;;;;;13.63;12.43;;;;;;;-3.12;54.35;96943.25;5115120;28;20276;-65
2022/03/20 04:21:39;;;;;;;13.48;12.38;;;;;;;-3.14;54.80;96946.19;5115018;28;20195;-65
2022/03/20 04:24:07;;;;;;;13.85;12.55;;;;;;;-3.17;54.77;96941.22;5115098;28;20191;-65
2022/03/20 04:26:34;;;;;;;14.38;12.93;;;;;;;-3.22;55.03;96941.09;5097316;28;20192;-65
2022/03/20 04:29:01;;;;;;;14.15;12.95;;;;;;;-3.21;55.02;96948.13;5117566;28;20186;-66
2022/03/20 04:31:30;;;;;;;16.45;15.02;;;;;;;-3.32;55.04;96944.25;5100747;28;20551;-66
2022/03/20 04:33:58;;;;;;;17.83;16.13;;;;;;;-3.41;54.99;96942.91;5118664;28;20188;-66
2022/03/20 04:36:27;;;;;;;17.75;15.98;;;;;;;-3.39;55.70;96947.00;5118639;28;20192;-66
2022/03/20 04:38:56;;;;;;;18.13;16.02;;;;;;;-3.35;55.25;96958.19;5118476;28;20195;-66
2022/03/20 04:41:23;;;;;;;15.77;14.38;;;;;;;-3.34;55.02;96956.31;5100545;28;20190;-65
2022/03/20 04:43:51;;;;;;;16.42;14.93;;;;;;;-3.33;55.03;96964.22;5118391;28;20252;-65
2022/03/20 04:46:19;;;;;;;15.98;14.68;;;;;;;-3.37;55.65;96962.16;5100686;28;20230;-66
2022/03/20 04:59:44;;;;;;;16.17;14.68;;;;;;;-3.36;55.60;96958.41;5100522;28;20196;-66
2022/03/20 05:02:11;;;;;;;17.05;15.45;;;;;;;-3.37;55.92;96960.28;5100259;28;20234;-65
2022/03/20 05:04:38;;;;;;;16.80;15.20;;;;;;;-3.34;55.94;96959.00;5100026;28;20201;-65
2022/03/20 05:07:06;;;;;;;16.17;14.77;;;;;;;-3.33;56.10;96966.09;5100082;28;20200;-65
2022/03/20 05:15:06;;;;;;;15.52;14.13;;;;;;;-3.20;55.32;96964.09;5100339;28;20184;-66
2022/03/20 05:17:32;;;;;;;16.30;14.48;;;;;;;-3.13;55.44;96963.22;5117796;28;20188;-66
2022/03/20 05:19:59;;;;;;;15.68;14.20;;;;;;;-3.04;55.21;96970.00;5117449;28;20188;-66
2022/03/20 05:22:27;;;;;;;16.00;14.43;;;;;;;-2.95;54.69;96966.78;5099889;28;20202;-66
2022/03/20 05:24:54;;;;;;;15.93;14.43;;;;;;;-2.86;54.04;96975.47;5117234;28;20192;-66
2022/03/20 05:27:21;;;;;;;16.90;15.30;;;;;;;-2.78;53.72;96977.03;5099904;28;20268;-66
2022/03/20 05:29:48;;;;;;;15.90;14.23;;;;;;;-2.74;53.95;96975.53;5117510;28;20198;-66
2022/03/20 05:32:14;;;;;;;16.20;14.10;;;;;;;-2.68;53.26;96977.38;5116968;28;20223;-66
2022/03/20 05:34:41;;;;;;;12.23;11.20;;;;;;;-2.61;52.09;96980.00;5117510;28;20194;-66
2022/03/20 05:37:08;;;;;;;13.23;12.00;;;;;;;-2.53;51.93;96980.53;5117379;28;20195;-66
2022/03/20 05:39:37;;;;;;;12.77;11.45;;;;;;;-2.48;51.95;96986.09;5098901;28;20615;-66
2022/03/20 05:42:04;;;;;;;13.40;12.10;;;;;;;-2.43;51.69;96986.25;5117014;28;20191;-66
2022/03/20 05:44:32;;;;;;;15.15;13.75;;;;;;;-2.37;51.51;96983.69;5099118;28;20208;-64
2022/03/20 05:47:00;;;;;;;13.43;12.20;;;;;;;-2.34;51.00;96991.38;5099162;28;20203;-66
2022/03/20 05:49:27;;;;;;;12.80;11.65;;;;;;;-2.26;50.54;96991.06;5099286;28;20207;-66
2022/03/20 05:51:55;;;;;;;12.95;11.63;;;;;;;-2.19;50.12;96992.63;5116921;28;20239;-66
2022/03/20 05:54:22;;;;;;;11.85;10.73;;;;;;;-2.10;49.57;96993.19;5099227;28;20580;-66
2022/03/20 05:59:36;;;;;;;11.68;10.57;;;;;;;-1.85;48.37;96992.22;5116682;28;20191;-66
2022/03/20 06:02:03;;;;;;;11.70;10.60;;;;;;;-1.85;47.92;96992.22;5117018;28;20184;-66
2022/03/20 06:04:31;;;;;;;11.75;10.65;;;;;;;-1.81;48.31;96988.06;5116784;28;20211;-66
2022/03/20 06:06:59;;;;;;;11.82;10.75;;;;;;;-1.74;48.87;96989.63;5116454;28;20196;-66
2022/03/20 06:09:25;;;;;;;11.45;10.40;;;;;;;-1.68;48.23;97001.38;5116663;28;20230;-66
2022/03/20 06:11:54;;;;;;;11.18;10.18;;;;;;;-1.67;48.22;96999.50;5116325;28;20214;-66
2022/03/20 06:14:21;;;;;;;11.90;10.80;;;;;;;-1.64;47.96;96997.16;5098759;28;20188;-66
2022/03/20 06:16:48;;;;;;;12.65;11.35;;;;;;;-1.62;48.46;96999.66;5116152;28;20596;-66
2022/03/20 06:19:15;;;;;;;16.00;14.45;;;;;;;-1.46;47.71;97004.41;5098836;28;20695;-66
2022/03/20 06:21:42;;;;;;;19.15;17.25;;;;;;;-1.44;47.57;97007.75;5098859;28;20600;-66
2022/03/20 06:24:09;;;;;;;18.80;16.90;;;;;;;-1.38;47.47;97008.69;5116527;28;20195;-66
2022/03/20 06:26:36;;;;;;;17.52;15.73;;;;;;;-1.31;47.56;96998.59;5116419;28;20172;-66
2022/03/20 06:29:06;;;;;;;18.25;16.40;;;;;;;-1.25;47.04;97003.09;5098420;28;20543;-66
2022/03/20 06:31:33;;;;;;;19.65;17.77;;;;;;;-1.23;47.02;96996.41;5116617;28;20220;-66
2022/03/20 06:34:00;;;;;;;19.35;17.55;;;;;;;-1.17;47.51;97001.94;5116298;28;20176;-66
2022/03/20 06:36:27;;;;;;;18.92;17.08;;;;;;;-1.12;46.54;97000.19;5116482;28;20290;-66
2022/03/20 06:38:54;;;;;;;16.80;15.30;;;;;;;-1.06;46.51;97001.94;5097930;28;20196;-66
2022/03/20 06:41:21;;;;;;;16.95;15.30;;;;;;;-0.95;46.75;97000.31;5116211;28;20180;-66
2022/03/20 06:43:48;;;;;;;11.82;10.65;;;;;;;-0.86;45.25;97001.66;5098185;28;20202;-66
2022/03/20 06:46:16;;;;;;;12.10;10.93;;;;;;;-0.81;45.44;97003.66;5116277;28;20196;-65
2022/03/20 06:48:43;;;;;;;12.23;11.13;;;;;;;-0.65;45.44;96997.56;5098112;28;20251;-65
2022/03/20 06:51:10;;;;;;;11.85;10.70;;;;;;;-0.56;45.63;96993.44;5114707;28;20232;-65
2022/03/20 06:53:37;;;;;;;11.60;10.50;;;;;;;-0.49;45.31;96998.72;5097854;28;20230;-65
2022/03/20 06:56:04;;;;;;;11.80;10.70;;;;;;;-0.40;45.24;97004.63;5098264;28;20196;-65
2022/03/20 06:58:31;;;;;;;10.10;9.10;;;;;;;-0.29;44.13;97006.50;5116054;28;20188;-65
2022/03/20 07:00:58;;;;;;;9.10;8.30;;;;;;;-0.39;43.48;97004.41;5115782;28;20550;-66
2022/03/20 07:03:26;;;;;;;9.70;8.90;;;;;;;-0.30;43.60;97005.66;5098494;28;20574;-65
2022/03/20 07:05:53;;;;;;;10.00;9.05;;;;;;;-0.25;43.59;97005.81;5097839;28;20196;-66
2022/03/20 07:08:21;;;;;;;9.70;8.80;;;;;;;-0.23;43.42;97008.28;5097969;28;20196;-66
2022/03/20 07:10:48;;;;;;;10.43;9.55;;;;;;;-0.22;43.77;97004.50;5097504;28;20223;-66
2022/03/20 07:15:59;;;;;;;8.95;8.15;;;;;;;0.07;43.56;97007.28;5115647;28;20527;-65
2022/03/20 07:18:28;;;;;;;8.82;8.07;;;;;;;0.13;42.92;97003.63;5115414;28;20180;-65
2022/03/20 07:20:56;;;;;;;9.27;7.47;;;;;;;0.17;42.82;97004.78;5115605;28;20180;-65
2022/03/20 07:23:23;;;;;;;8.85;8.05;;;;;;;0.11;42.75;96998.44;5097441;28;20616;-65
2022/03/20 07:31:18;;;;;;;7.97;7.32;;;;;;;-0.07;43.06;97004.03;5115532;28;20195;-65
2022/03/20 07:33:48;;;;;;;8.77;7.97;;;;;;;0.07;42.88;96999.13;5115176;28;20199;-65
2022/03/20 07:36:15;;;;;;;7.72;7.13;;;;;;;0.21;42.55;97001.34;5115407;28;20271;-67
2022/03/20 07:38:42;;;;;;;7.22;6.55;;;;;;;0.30;42.63;96998.28;5097626;28;20206;-64
2022/03/20 07:41:09;;;;;;;6.68;6.10;;;;;;;0.27;41.30;96999.56;5097549;28;20286;-65
2022/03/20 07:43:36;;;;;;;6.78;6.18;;;;;;;0.42;41.56;96999.06;5098147;28;20202;-65
2022/03/20 07:46:02;;;;;;;8.57;7.70;;;;;;;0.64;41.89;97000.03;5097899;28;20199;-65
2022/03/20 07:48:29;;;;;;;10.10;9.13;;;;;;;0.84;42.77;96996.88;5115772;28;20608;-65
2022/03/20 07:50:59;;;;;;;9.50;8.70;;;;;;;1.06;41.55;96988.03;5093632;28;20228;-65
2022/03/20 07:53:26;;;;;;;9.80;8.90;;;;;;;1.06;40.11;96994.28;5094464;28;20193;-65
2022/03/20 07:55:53;;;;;;;8.82;7.95;;;;;;;1.02;40.84;96986.84;5094350;28;20211;-65
2022/03/20 07:58:21;;;;;;;8.20;7.50;;;;;;;1.16;41.14;96982.72;5094031;28;20211;-65
2022/03/20 08:00:48;;;;;;;8.57;7.88;;;;;;;1.08;39.58;96980.44;5094777;28;20252;-65
2022/03/20 08:03:15;;;;;;;10.10;9.10;;;;;;;1.03;39.31;96983.06;5098229;28;20196;-65
2022/03/20 08:05:42;;;;;;;10.75;9.65;;;;;;;1.19;40.63;96980.34;5097814;28;20199;-65
2022/03/20 08:08:14;;;;;;;9.77;8.85;;;;;;;1.27;39.82;96975.56;5098014;28;20257;-65
2022/03/20 08:10:41;;;;;;;9.18;8.43;;;;;;;1.22;40.36;96973.59;5098541;28;20199;-65
2022/03/20 08:13:09;;;;;;;8.30;7.60;;;;;;;1.28;40.18;96969.91;5098643;28;20193;-65
2022/03/20 08:15:36;;;;;;;8.85;7.95;;;;;;;1.57;39.38;96967.91;5098236;28;20197;-65
2022/03/20 08:18:07;;;;;;;9.18;8.30;;;;;;;1.74;39.24;96964.31;5097477;28;20197;-65
2022/03/20 08:20:34;;;;;;;9.05;8.02;;;;;;;1.77;38.54;96961.91;5097721;28;20200;-65
2022/03/20 08:23:01;;;;;;;9.27;8.45;;;;;;;1.86;38.33;96960.44;5097625;28;20188;-65
2022/03/20 08:25:29;;;;;;;9.05;8.15;;;;;;;1.79;38.93;96958.97;5098486;28;20188;-65
2022/03/20 08:27:56;;;;;;;9.05;8.18;;;;;;;1.86;38.84;96949.53;5098223;28;20196;-65
2022/03/20 08:30:23;;;;;;;9.02;8.23;;;;;;;2.04;39.45;96953.88;5098257;28;20503;-65
2022/03/20 08:32:53;;;;;;;9.98;8.98;;;;;;;2.26;39.48;96948.41;5098184;28;20200;-65
2022/03/20 08:35:20;;;;;;;9.70;8.80;;;;;;;2.33;38.15;96940.88;5097826;28;20199;-65
2022/03/20 08:37:48;;;;;;;8.55;7.85;;;;;;;2.55;37.69;96942.75;5098289;28;20203;-65
2022/03/20 08:40:16;;;;;;;8.73;7.93;;;;;;;2.61;36.83;96930.81;5098030;28;20184;-65
2022/03/20 08:42:46;;;;;;;7.50;6.78;;;;;;;2.43;36.07;96945.59;5097803;28;20196;-65
2022/03/20 08:45:13;;;;;;;7.38;6.68;;;;;;;2.47;36.09;96940.47;5097880;28;20196;-65
2022/03/20 08:47:40;;;;;;;7.60;6.90;;;;;;;2.62;36.16;96935.19;5097963;28;20197;-65
2022/03/20 08:50:08;;;;;;;8.32;7.63;;;;;;;2.74;36.21;96927.69;5096746;28;20236;-65
2022/03/20 08:52:35;;;;;;;7.65;6.97;;;;;;;2.81;36.55;96928.28;5097846;28;20205;-65
2022/03/20 08:55:09;;;;;;;7.75;7.07;;;;;;;2.61;35.59;96926.22;5097779;28;20589;-65
2022/03/20 08:57:37;;;;;;;8.20;7.50;;;;;;;2.52;36.15;96940.53;5097682;28;20241;-65
2022/03/20 09:00:08;;;;;;;8.63;7.82;;;;;;;2.47;36.65;96932.28;5097696;28;20195;-65
2022/03/20 09:02:34;;;;;;;8.98;7.90;;;;;;;2.63;36.26;96917.75;5096664;28;20188;-65
2022/03/20 09:05:02;;;;;;;7.43;6.85;;;;;;;2.89;37.38;96919.66;5097158;28;20199;-65
2022/03/20 09:07:29;;;;;;;8.73;7.93;;;;;;;3.08;36.37;96921.97;5096751;28;20235;-65
2022/03/20 09:09:56;;;;;;;7.78;7.18;;;;;;;3.22;36.01;96917.72;5096700;28;20200;-65
2022/03/20 09:12:23;;;;;;;7.28;6.68;;;;;;;3.46;35.93;96911.91;5096422;28;20218;-65
2022/03/20 09:14:50;;;;;;;6.85;6.13;;;;;;;3.59;35.31;96906.84;5095904;28;20204;-65
2022/03/20 09:20:02;;;;;;;8.07;6.25;;;;;;;3.35;34.10;96911.84;5095932;28;20360;-65
2022/03/20 09:22:29;;;;;;;7.70;6.90;;;;;;;3.58;34.43;96909.81;5097034;28;20199;-65
2022/03/20 09:24:56;;;;;;;6.65;6.00;;;;;;;3.85;35.24;96891.41;5096534;28;20203;-65
2022/03/20 09:27:23;;;;;;;7.65;6.97;;;;;;;3.69;32.69;96897.88;5096290;28;20200;-65
2022/03/20 09:29:50;;;;;;;6.72;6.13;;;;;;;3.52;33.75;96891.75;5096001;28;20196;-72
2022/03/20 09:32:20;;;;;;;7.32;6.43;;;;;;;3.56;33.27;96898.34;5096990;28;20216;-72
2022/03/20 09:34:47;;;;;;;7.10;6.53;;;;;;;3.41;32.71;96896.31;5096363;28;20268;-66
2022/03/20 09:37:14;;;;;;;7.55;6.80;;;;;;;3.32;33.38;96892.47;5096732;28;20196;-66
2022/03/20 09:39:40;;;;;;;7.15;6.43;;;;;;;3.41;34.36;96887.31;5096652;28;20177;-69
2022/03/20 09:42:08;;;;;;;6.53;6.03;;;;;;;3.69;33.91;96875.22;5096871;28;20187;-64
2022/03/20 09:44:38;;;;;;;7.18;6.47;;;;;;;4.02;34.49;96871.25;5096831;28;20581;-64
2022/03/20 09:47:06;;;;;;;7.72;7.00;;;;;;;4.24;34.07;96869.16;5096737;28;20196;-64
2022/03/20 09:49:34;;;;;;;7.97;7.35;;;;;;;4.53;33.21;96874.97;5096056;28;20228;-64
2022/03/20 09:52:01;;;;;;;7.50;6.82;;;;;;;4.72;33.68;96853.44;5115905;28;20246;-76
2022/03/20 09:54:28;;;;;;;6.75;5.72;;;;;;;4.85;32.75;96856.69;5099074;28;20274;-71
2022/03/20 09:56:55;;;;;;;6.85;6.32;;;;;;;5.02;32.27;96860.00;5117223;28;20196;-66
2022/03/20 09:59:22;;;;;;;6.72;5.80;;;;;;;4.83;31.32;96862.47;5116972;28;20187;-66
2022/03/20 10:01:49;;;;;;;7.20;6.60;;;;;;;4.66;31.13;96854.50;5098689;28;20198;-64
2022/03/20 10:04:16;;;;;;;7.40;6.00;;;;;;;4.63;31.53;96855.03;5099006;28;20639;-65
2022/03/20 10:06:45;;;;;;;6.43;5.82;;;;;;;4.58;30.68;96857.78;5116525;28;20568;-64
2022/03/20 10:09:13;;;;;;;7.10;6.50;;;;;;;4.52;30.95;96853.38;5098791;28;20268;-66
2022/03/20 10:11:42;;;;;;;7.50;6.70;;;;;;;4.71;32.49;96848.22;5116473;28;20570;-66
2022/03/20 10:14:10;;;;;;;6.70;6.13;;;;;;;5.16;32.06;96858.34;5116537;28;20227;-64
2022/03/20 10:16:38;;;;;;;5.95;5.40;;;;;;;5.17;31.33;96846.31;5116510;28;20210;-64
2022/03/20 10:19:26;;;;;;;6.25;5.75;;;;;;;5.21;30.40;96849.31;5116580;28;20194;-64
2022/03/20 10:21:55;;;;;;;6.07;5.53;;;;;;;5.42;30.92;96837.25;5098802;28;20189;-64
2022/03/20 10:24:25;;;;;;;6.45;5.85;;;;;;;5.39;30.52;96836.97;5116848;28;20267;-64
2022/03/20 10:26:53;;;;;;;5.70;5.22;;;;;;;5.32;30.15;96835.34;5116423;28;20195;-64
2022/03/20 10:29:20;;;;;;;5.65;5.13;;;;;;;5.18;30.21;96839.72;5098529;28;20225;-64
2022/03/20 10:31:50;;;;;;;5.85;5.28;;;;;;;5.40;30.17;96831.22;5116511;28;20207;-64
2022/03/20 10:34:18;;;;;;;5.57;5.10;;;;;;;5.54;29.29;96829.53;5116205;28;20184;-64
2022/03/20 10:36:45;;;;;;;6.25;5.72;;;;;;;5.62;30.05;96830.88;5116185;28;20244;-64
2022/03/20 10:39:16;;;;;;;5.70;5.30;;;;;;;5.26;29.75;96833.69;5098660;28;20192;-64
2022/03/20 10:41:45;;;;;;;6.40;5.57;;;;;;;5.41;31.38;96829.28;5098344;28;20200;-64
2022/03/20 10:44:14;;;;;;;6.10;5.60;;;;;;;5.39;30.02;96828.75;5116121;28;20183;-64
2022/03/20 10:46:41;;;;;;;6.22;5.45;;;;;;;5.67;30.08;96813.63;5116176;28;20184;-64
2022/03/20 10:49:09;;;;;;;6.43;5.82;;;;;;;5.94;30.67;96818.75;5098202;28;20207;-64
2022/03/20 10:51:40;;;;;;;5.65;5.25;;;;;;;5.87;29.88;96808.06;5115375;28;20303;-64
2022/03/20 10:54:09;;;;;;;6.38;5.80;;;;;;;6.25;32.06;96813.97;5098218;28;20195;-64
2022/03/20 10:56:53;;;;;;;7.07;6.40;;;;;;;6.51;30.07;96807.22;5115858;28;20215;-64
2022/03/20 10:59:20;;;;;;;6.93;6.35;;;;;;;6.80;29.73;96809.19;5098713;28;20207;-64
2022/03/20 11:01:47;;;;;;;6.32;5.82;;;;;;;6.35;28.90;96808.38;5098126;28;20203;-64
2022/03/20 11:04:15;;;;;;;7.72;6.90;;;;;;;5.93;29.70;96817.13;5115746;28;20536;-64
2022/03/20 11:06:43;;;;;;;7.45;6.75;;;;;;;5.82;30.30;96810.03;5098052;28;20188;-64
2022/03/20 11:09:10;;;;;;;6.38;5.78;;;;;;;6.14;29.87;96801.41;5115400;28;20604;-64
2022/03/20 11:11:43;;;;;;;6.45;5.93;;;;;;;6.71;30.55;96789.78;5115518;28;20179;-64
2022/03/20 11:14:10;;;;;;;6.03;5.45;;;;;;;7.13;30.36;96779.28;5097803;28;20192;-64
2022/03/20 11:16:38;;;;;;;7.13;6.43;;;;;;;7.36;28.84;96783.16;5115327;28;20192;-65
2022/03/20 11:19:06;;;;;;;6.50;5.93;;;;;;;7.66;29.27;96777.34;5115978;28;20188;-64
2022/03/20 11:21:36;;;;;;;6.00;5.50;;;;;;;7.48;27.74;96780.84;5115718;28;20180;-64
2022/03/20 11:24:04;;;;;;;5.00;4.60;;;;;;;7.76;30.51;96779.13;5097377;28;20199;-64
2022/03/20 11:26:33;;;;;;;6.30;5.10;;;;;;;8.15;29.15;96769.84;5097984;28;20196;-64
2022/03/20 11:29:03;;;;;;;5.97;5.40;;;;;;;8.46;27.28;96763.94;5098109;28;20203;-64
2022/03/20 11:31:34;;;;;;;9.10;8.20;;;;;;;7.87;26.86;96772.41;5115754;28;20267;-64
2022/03/20 11:34:04;;;;;;;6.22;5.72;;;;;;;7.52;27.79;96759.13;5097602;28;20207;-64
2022/03/20 11:36:31;;;;;;;5.88;5.28;;;;;;;7.58;28.09;96752.44;5098317;28;20199;-64
2022/03/20 11:39:11;;;;;;;7.93;5.95;;;;;;;7.69;27.97;96762.19;5119932;28;20191;-63
2022/03/20 11:41:38;;;;;;;7.82;7.07;;;;;;;7.69;26.57;96756.69;5119673;28;20245;-63
2022/03/20 11:44:20;;;;;;;9.65;8.10;;;;;;;7.83;28.15;96757.63;5101631;28;20191;-63
2022/03/20 11:46:50;;;;;;;13.05;11.55;;;;;;;8.05;27.83;96756.25;5102090;28;20290;-64
2022/03/20 11:49:29;;;;;;;24.42;22.48;;;;;;;7.78;26.88;96754.13;5101832;28;20199;-64
2022/03/20 11:52:10;;;;;;;16.27;14.88;;;;;;;7.66;26.46;96741.66;5097375;28;20266;-65
2022/03/20 11:54:54;;;;;;;6.35;5.75;;;;;;;7.82;26.25;96741.44;5098986;28;20492;-64
2022/03/20 11:57:46;;;;;;;5.60;5.05;;;;;;;7.46;26.10;96750.94;5098115;28;20192;-64
2022/03/20 12:00:16;;;;;;;9.98;9.07;;;;;;;7.80;27.84;96749.97;5083999;28;20636;-64
2022/03/20 12:02:50;;;;;;;6.82;6.20;;;;;;;8.32;27.13;96733.59;5098924;28;20207;-64
2022/03/20 12:05:25;;;;;;;22.58;20.67;;;;;;;8.32;26.02;96737.16;5098881;28;20211;-64
2022/03/20 12:07:57;;;;;;;8.88;8.07;;;;;;;8.11;26.27;96735.84;5097703;28;20195;-64
2022/03/20 12:10:30;;;;;;;5.75;5.25;;;;;;;7.75;25.94;96736.31;5098786;28;20197;-64
2022/03/20 12:13:07;;;;;;;6.07;5.57;;;;;;;7.90;26.42;96738.03;5098513;28;20204;-64